sensor_id;sensor_type;location;lat;lon;timestamp;pressure;altitude;pressure_sealevel;temperature;humidity
69535;BME280;56754;51.568;5.048;2023-05-27T00:02:09;102886.28;;;17.36;52.10
69535;BME280;56754;51.568;5.048;2023-05-27T00:04:34;102883.38;;;17.33;51.84
69535;BME280;56754;51.568;5.048;2023-05-27T00:06:59;102873.97;;;17.30;51.85
69535;BME280;56754;51.568;5.048;2023-05-27T00:09:25;102883.50;;;17.27;52.02
69535;BME280;56754;51.568;5.048;2023-05-27T00:11:50;102873.78;;;17.26;52.87
69535;BME280;56754;51.568;5.048;2023-05-27T00:14:15;102870.91;;;17.23;52.39
69535;BME280;56754;51.568;5.048;2023-05-27T00:16:41;102870.38;;;17.21;54.05
69535;BME280;56754;51.568;5.048;2023-05-27T00:19:06;102869.91;;;17.19;52.72
69535;BME280;56754;51.568;5.048;2023-05-27T00:21:31;102871.00;;;17.18;52.54
69535;BME280;56754;51.568;5.048;2023-05-27T00:23:57;102877.81;;;17.15;52.90
69535;BME280;56754;51.568;5.048;2023-05-27T00:26:22;102873.84;;;17.13;51.84
69535;BME280;56754;51.568;5.048;2023-05-27T00:28:47;102864.13;;;17.12;52.87
69535;BME280;56754;51.568;5.048;2023-05-27T00:31:13;102868.22;;;17.09;53.25
69535;BME280;56754;51.568;5.048;2023-05-27T00:33:38;102868.53;;;17.08;53.04
69535;BME280;56754;51.568;5.048;2023-05-27T00:36:03;102867.25;;;17.05;52.61
69535;BME280;56754;51.568;5.048;2023-05-27T00:38:29;102871.06;;;17.04;52.91
69535;BME280;56754;51.568;5.048;2023-05-27T00:40:57;102861.66;;;17.01;51.21
69535;BME280;56754;51.568;5.048;2023-05-27T00:43:25;102867.66;;;16.98;52.52
69535;BME280;56754;51.568;5.048;2023-05-27T00:45:50;102866.88;;;16.98;53.64
69535;BME280;56754;51.568;5.048;2023-05-27T00:48:15;102858.25;;;16.96;52.87
69535;BME280;56754;51.568;5.048;2023-05-27T00:50:41;102860.16;;;16.95;53.21
69535;BME280;56754;51.568;5.048;2023-05-27T00:53:06;102855.38;;;16.92;52.90
69535;BME280;56754;51.568;5.048;2023-05-27T00:55:32;102848.66;;;16.90;53.03
69535;BME280;56754;51.568;5.048;2023-05-27T00:57:59;102847.03;;;16.89;52.47
69535;BME280;56754;51.568;5.048;2023-05-27T01:00:25;102849.25;;;16.87;51.84
69535;BME280;56754;51.568;5.048;2023-05-27T01:02:50;102847.97;;;16.84;52.33
69535;BME280;56754;51.568;5.048;2023-05-27T01:05:16;102850.97;;;16.82;53.04
69535;BME280;56754;51.568;5.048;2023-05-27T01:07:50;102847.78;;;16.80;53.92
69535;BME280;56754;51.568;5.048;2023-05-27T01:10:36;102837.25;;;16.79;52.15
69535;BME280;56754;51.568;5.048;2023-05-27T01:13:41;102842.97;;;16.77;52.47
69535;BME280;56754;51.568;5.048;2023-05-27T01:16:12;102845.44;;;16.74;53.81
69535;BME280;56754;51.568;5.048;2023-05-27T01:18:40;102849.25;;;16.73;53.63
69535;BME280;56754;51.568;5.048;2023-05-27T01:21:10;102844.44;;;16.70;53.88
69535;BME280;56754;51.568;5.048;2023-05-27T01:23:36;102843.94;;;16.68;53.18
69535;BME280;56754;51.568;5.048;2023-05-27T01:26:01;102842.06;;;16.68;54.21
69535;BME280;56754;51.568;5.048;2023-05-27T01:28:26;102839.16;;;16.65;52.83
69535;BME280;56754;51.568;5.048;2023-05-27T01:30:54;102840.25;;;16.64;52.94
69535;BME280;56754;51.568;5.048;2023-05-27T01:33:25;102842.44;;;16.61;52.84
69535;BME280;56754;51.568;5.048;2023-05-27T01:35:56;102830.34;;;16.59;52.84
69535;BME280;56754;51.568;5.048;2023-05-27T01:38:24;102832.84;;;16.55;53.50
69535;BME280;56754;51.568;5.048;2023-05-27T01:40:51;102828.56;;;16.54;53.05
69535;BME280;56754;51.568;5.048;2023-05-27T01:43:18;102819.66;;;16.54;54.16
69535;BME280;56754;51.568;5.048;2023-05-27T01:45:44;102822.66;;;16.52;52.66
69535;BME280;56754;51.568;5.048;2023-05-27T01:48:09;102823.78;;;16.51;54.14
69535;BME280;56754;51.568;5.048;2023-05-27T01:50:35;102821.66;;;16.48;53.08
69535;BME280;56754;51.568;5.048;2023-05-27T01:53:01;102821.16;;;16.46;54.42
69535;BME280;56754;51.568;5.048;2023-05-27T01:55:27;102833.06;;;16.45;53.88
69535;BME280;56754;51.568;5.048;2023-05-27T01:57:52;102830.19;;;16.42;53.25
69535;BME280;56754;51.568;5.048;2023-05-27T02:00:18;102832.38;;;16.40;53.56
69535;BME280;56754;51.568;5.048;2023-05-27T02:02:44;102835.84;;;16.40;53.97
69535;BME280;56754;51.568;5.048;2023-05-27T02:05:09;102837.25;;;16.37;54.83
69535;BME280;56754;51.568;5.048;2023-05-27T02:07:34;102829.47;;;16.36;54.75
69535;BME280;56754;51.568;5.048;2023-05-27T02:09:59;102827.38;;;16.33;53.28
69535;BME280;56754;51.568;5.048;2023-05-27T02:12:25;102836.53;;;16.32;54.31
69535;BME280;56754;51.568;5.048;2023-05-27T02:14:50;102831.47;;;16.30;54.48
69535;BME280;56754;51.568;5.048;2023-05-27T02:17:15;102832.25;;;16.31;54.30
69535;BME280;56754;51.568;5.048;2023-05-27T02:19:41;102836.34;;;16.28;54.71
69535;BME280;56754;51.568;5.048;2023-05-27T02:22:06;102826.94;;;16.26;54.80
69535;BME280;56754;51.568;5.048;2023-05-27T02:24:31;102830.25;;;16.23;54.38
69535;BME280;56754;51.568;5.048;2023-05-27T02:26:57;102829.75;;;16.21;53.70
69535;BME280;56754;51.568;5.048;2023-05-27T02:29:22;102827.63;;;16.18;54.17
69535;BME280;56754;51.568;5.048;2023-05-27T02:31:48;102821.44;;;16.17;54.57
69535;BME280;56754;51.568;5.048;2023-05-27T02:34:13;102817.44;;;16.14;53.86
69535;BME280;56754;51.568;5.048;2023-05-27T02:36:38;102822.34;;;16.12;54.45
69535;BME280;56754;51.568;5.048;2023-05-27T02:39:04;102816.72;;;16.09;55.18
69535;BME280;56754;51.568;5.048;2023-05-27T02:41:29;102824.03;;;16.08;54.59
69535;BME280;56754;51.568;5.048;2023-05-27T02:43:54;102828.63;;;16.08;54.78
69535;BME280;56754;51.568;5.048;2023-05-27T02:46:20;102830.81;;;16.06;54.33
69535;BME280;56754;51.568;5.048;2023-05-27T02:48:45;102832.25;;;16.03;54.80
69535;BME280;56754;51.568;5.048;2023-05-27T02:51:11;102838.72;;;16.02;54.85
69535;BME280;56754;51.568;5.048;2023-05-27T02:53:36;102838.22;;;16.00;54.93
69535;BME280;56754;51.568;5.048;2023-05-27T02:56:02;102846.59;;;15.99;54.50
69535;BME280;56754;51.568;5.048;2023-05-27T02:58:27;102844.19;;;15.97;54.91
69535;BME280;56754;51.568;5.048;2023-05-27T03:00:52;102846.09;;;15.97;54.67
69535;BME280;56754;51.568;5.048;2023-05-27T03:03:18;102841.81;;;15.96;55.12
69535;BME280;56754;51.568;5.048;2023-05-27T03:05:43;102845.38;;;15.91;54.60
69535;BME280;56754;51.568;5.048;2023-05-27T03:08:08;102840.81;;;15.91;55.90
69535;BME280;56754;51.568;5.048;2023-05-27T03:10:34;102838.97;;;15.87;54.54
69535;BME280;56754;51.568;5.048;2023-05-27T03:12:59;102840.88;;;15.86;55.08
69535;BME280;56754;51.568;5.048;2023-05-27T03:15:25;102840.38;;;15.84;54.83
69535;BME280;56754;51.568;5.048;2023-05-27T03:17:50;102845.75;;;15.84;54.75
69535;BME280;56754;51.568;5.048;2023-05-27T03:20:16;102840.16;;;15.81;55.28
69535;BME280;56754;51.568;5.048;2023-05-27T03:22:41;102833.47;;;15.78;55.45
69535;BME280;56754;51.568;5.048;2023-05-27T03:25:06;102827.78;;;15.80;55.12
69535;BME280;56754;51.568;5.048;2023-05-27T03:27:32;102829.97;;;15.78;55.55
69535;BME280;56754;51.568;5.048;2023-05-27T03:29:58;102832.16;;;15.76;55.64
69535;BME280;56754;51.568;5.048;2023-05-27T03:32:24;102827.06;;;15.74;54.86
69535;BME280;56754;51.568;5.048;2023-05-27T03:34:49;102831.16;;;15.72;54.86
69535;BME280;56754;51.568;5.048;2023-05-27T03:37:14;102824.16;;;15.71;56.16
69535;BME280;56754;51.568;5.048;2023-05-27T03:39:40;102827.94;;;15.69;55.36
69535;BME280;56754;51.568;5.048;2023-05-27T03:42:06;102822.88;;;15.68;55.53
69535;BME280;56754;51.568;5.048;2023-05-27T03:44:31;102822.88;;;15.68;55.55
69535;BME280;56754;51.568;5.048;2023-05-27T03:46:57;102821.53;;;15.65;55.40
69535;BME280;56754;51.568;5.048;2023-05-27T03:49:22;102816.13;;;15.65;55.50
69535;BME280;56754;51.568;5.048;2023-05-27T03:51:47;102807.53;;;15.63;55.80
69535;BME280;56754;51.568;5.048;2023-05-27T03:54:13;102812.91;;;15.63;55.96
69535;BME280;56754;51.568;5.048;2023-05-27T03:56:38;102809.44;;;15.63;55.89
69535;BME280;56754;51.568;5.048;2023-05-27T03:59:03;102809.72;;;15.61;55.76
69535;BME280;56754;51.568;5.048;2023-05-27T04:01:29;102810.31;;;15.58;55.79
69535;BME280;56754;51.568;5.048;2023-05-27T04:03:54;102811.41;;;15.57;55.79
69535;BME280;56754;51.568;5.048;2023-05-27T04:06:19;102817.91;;;15.56;56.22
69535;BME280;56754;51.568;5.048;2023-05-27T04:08:44;102812.50;;;15.56;56.24
69535;BME280;56754;51.568;5.048;2023-05-27T04:11:11;102820.59;;;15.56;55.94
69535;BME280;56754;51.568;5.048;2023-05-27T04:13:37;102817.91;;;15.56;55.54
69535;BME280;56754;51.568;5.048;2023-05-27T04:16:02;102814.69;;;15.54;55.38
69535;BME280;56754;51.568;5.048;2023-05-27T04:18:27;102823.88;;;15.53;56.11
69535;BME280;56754;51.568;5.048;2023-05-27T04:20:52;102816.59;;;15.54;55.76
69535;BME280;56754;51.568;5.048;2023-05-27T04:23:18;102811.19;;;15.54;56.15
69535;BME280;56754;51.568;5.048;2023-05-27T04:25:43;102814.97;;;15.53;56.96
69535;BME280;56754;51.568;5.048;2023-05-27T04:28:09;102808.00;;;15.52;55.89
69535;BME280;56754;51.568;5.048;2023-05-27T04:30:35;102805.00;;;15.53;56.64
69535;BME280;56754;51.568;5.048;2023-05-27T04:33:01;102801.50;;;15.53;56.27
69535;BME280;56754;51.568;5.048;2023-05-27T04:35:26;102803.13;;;15.54;56.19
69535;BME280;56754;51.568;5.048;2023-05-27T04:37:52;102797.94;;;15.57;57.34
69535;BME280;56754;51.568;5.048;2023-05-27T04:40:17;102793.34;;;15.58;56.70
69535;BME280;56754;51.568;5.048;2023-05-27T04:42:43;102784.16;;;15.59;57.43
69535;BME280;56754;51.568;5.048;2023-05-27T04:45:09;102791.16;;;15.60;56.84
69535;BME280;56754;51.568;5.048;2023-05-27T04:47:34;102792.25;;;15.59;56.60
69535;BME280;56754;51.568;5.048;2023-05-27T04:49:59;102796.53;;;15.60;56.54
69535;BME280;56754;51.568;5.048;2023-05-27T04:52:25;102787.66;;;15.59;56.67
69535;BME280;56754;51.568;5.048;2023-05-27T04:54:50;102791.44;;;15.58;56.39
69535;BME280;56754;51.568;5.048;2023-05-27T04:57:15;102786.56;;;15.60;56.35
69535;BME280;56754;51.568;5.048;2023-05-27T04:59:41;102780.38;;;15.60;56.23
69535;BME280;56754;51.568;5.048;2023-05-27T05:02:06;102787.06;;;15.62;56.04
69535;BME280;56754;51.568;5.048;2023-05-27T05:04:31;102788.97;;;15.62;56.85
69535;BME280;56754;51.568;5.048;2023-05-27T05:06:57;102785.97;;;15.63;57.26
69535;BME280;56754;51.568;5.048;2023-05-27T05:09:22;102778.97;;;15.62;55.96
69535;BME280;56754;51.568;5.048;2023-05-27T05:11:47;102775.97;;;15.64;56.55
69535;BME280;56754;51.568;5.048;2023-05-27T05:14:13;102779.47;;;15.64;56.36
69535;BME280;56754;51.568;5.048;2023-05-27T05:16:38;102768.41;;;15.66;56.50
69535;BME280;56754;51.568;5.048;2023-05-27T05:19:03;102783.47;;;15.67;56.62
69535;BME280;56754;51.568;5.048;2023-05-27T05:21:28;102787.81;;;15.68;56.49
69535;BME280;56754;51.568;5.048;2023-05-27T05:23:54;102791.00;;;15.70;56.76
69535;BME280;56754;51.568;5.048;2023-05-27T05:26:19;102790.72;;;15.72;56.52
69535;BME280;56754;51.568;5.048;2023-05-27T05:28:44;102780.72;;;15.72;56.58
69535;BME280;56754;51.568;5.048;2023-05-27T05:31:10;102782.81;;;15.75;55.87
69535;BME280;56754;51.568;5.048;2023-05-27T05:33:35;102767.97;;;15.78;56.57
69535;BME280;56754;51.568;5.048;2023-05-27T05:36:01;102765.25;;;15.78;56.00
69535;BME280;56754;51.568;5.048;2023-05-27T05:38:26;102763.09;;;15.80;56.23
69535;BME280;56754;51.568;5.048;2023-05-27T05:40:52;102774.84;;;15.84;56.15
69535;BME280;56754;51.568;5.048;2023-05-27T05:43:17;102768.88;;;15.87;55.70
69535;BME280;56754;51.568;5.048;2023-05-27T05:45:43;102766.88;;;15.92;56.73
69535;BME280;56754;51.568;5.048;2023-05-27T05:48:08;102760.09;;;15.95;56.36
69535;BME280;56754;51.568;5.048;2023-05-27T05:50:33;102758.72;;;15.98;56.31
69535;BME280;56754;51.568;5.048;2023-05-27T05:52:59;102764.50;;;16.05;56.28
69535;BME280;56754;51.568;5.048;2023-05-27T05:55:24;102763.91;;;16.08;56.29
69535;BME280;56754;51.568;5.048;2023-05-27T05:57:49;102754.41;;;16.10;55.60
69535;BME280;56754;51.568;5.048;2023-05-27T06:00:15;102749.53;;;16.12;55.07
69535;BME280;56754;51.568;5.048;2023-05-27T06:02:40;102756.69;;;16.17;55.29
69535;BME280;56754;51.568;5.048;2023-05-27T06:05:06;102756.09;;;16.20;55.36
69535;BME280;56754;51.568;5.048;2023-05-27T06:07:32;102760.91;;;16.23;54.93
69535;BME280;56754;51.568;5.048;2023-05-27T06:09:57;102765.69;;;16.26;54.90
69535;BME280;56754;51.568;5.048;2023-05-27T06:12:22;102763.22;;;16.30;55.00
69535;BME280;56754;51.568;5.048;2023-05-27T06:14:47;102763.59;;;16.37;55.19
69535;BME280;56754;51.568;5.048;2023-05-27T06:17:13;102756.19;;;16.43;55.00
69535;BME280;56754;51.568;5.048;2023-05-27T06:19:38;102762.28;;;16.48;54.73
69535;BME280;56754;51.568;5.048;2023-05-27T06:22:04;102748.19;;;16.51;54.59
69535;BME280;56754;51.568;5.048;2023-05-27T06:24:29;102749.97;;;16.56;54.54
69535;BME280;56754;51.568;5.048;2023-05-27T06:26:54;102739.38;;;16.59;54.23
69535;BME280;56754;51.568;5.048;2023-05-27T06:29:20;102738.28;;;16.60;53.75
69535;BME280;56754;51.568;5.048;2023-05-27T06:31:45;102733.84;;;16.65;54.04
69535;BME280;56754;51.568;5.048;2023-05-27T06:34:10;102730.84;;;16.66;53.84
69535;BME280;56754;51.568;5.048;2023-05-27T06:36:36;102733.47;;;16.71;53.91
69535;BME280;56754;51.568;5.048;2023-05-27T06:39:01;102731.44;;;16.77;53.63
69535;BME280;56754;51.568;5.048;2023-05-27T06:41:26;102723.06;;;16.78;53.31
69535;BME280;56754;51.568;5.048;2023-05-27T06:43:51;102730.03;;;16.79;53.03
69535;BME280;56754;51.568;5.048;2023-05-27T06:46:17;102727.56;;;16.83;53.05
69535;BME280;56754;51.568;5.048;2023-05-27T06:48:42;102730.44;;;16.87;53.01
69535;BME280;56754;51.568;5.048;2023-05-27T06:51:07;102727.91;;;16.90;53.24
69535;BME280;56754;51.568;5.048;2023-05-27T06:53:33;102730.78;;;16.94;53.48
69535;BME280;56754;51.568;5.048;2023-05-27T06:55:58;102717.19;;;16.99;53.73
69535;BME280;56754;51.568;5.048;2023-05-27T06:58:23;102721.19;;;17.01;53.56
69535;BME280;56754;51.568;5.048;2023-05-27T07:00:49;102721.66;;;17.03;53.08
69535;BME280;56754;51.568;5.048;2023-05-27T07:03:14;102724.56;;;17.07;53.43
69535;BME280;56754;51.568;5.048;2023-05-27T07:05:39;102720.44;;;17.10;52.95
69535;BME280;56754;51.568;5.048;2023-05-27T07:08:05;102724.41;;;17.12;52.61
69535;BME280;56754;51.568;5.048;2023-05-27T07:10:31;102716.00;;;17.14;52.81
69535;BME280;56754;51.568;5.048;2023-05-27T07:12:56;102721.91;;;17.16;52.72
69535;BME280;56754;51.568;5.048;2023-05-27T07:15:21;102717.78;;;17.18;52.89
69535;BME280;56754;51.568;5.048;2023-05-27T07:17:47;102722.28;;;17.23;52.94
69535;BME280;56754;51.568;5.048;2023-05-27T07:20:12;102718.44;;;17.24;52.70
69535;BME280;56754;51.568;5.048;2023-05-27T07:22:37;102717.03;;;17.26;52.97
69535;BME280;56754;51.568;5.048;2023-05-27T07:25:03;102714.84;;;17.28;53.04
69535;BME280;56754;51.568;5.048;2023-05-27T07:27:28;102718.03;;;17.31;52.38
69535;BME280;56754;51.568;5.048;2023-05-27T07:29:54;102718.81;;;17.31;52.41
69535;BME280;56754;51.568;5.048;2023-05-27T07:32:19;102709.59;;;17.32;52.26
69535;BME280;56754;51.568;5.048;2023-05-27T07:34:44;102705.78;;;17.33;52.19
69535;BME280;56754;51.568;5.048;2023-05-27T07:37:09;102700.09;;;17.35;52.44
69535;BME280;56754;51.568;5.048;2023-05-27T07:39:35;102701.06;;;17.39;53.14
69535;BME280;56754;51.568;5.048;2023-05-27T07:42:00;102701.25;;;17.42;53.00
69535;BME280;56754;51.568;5.048;2023-05-27T07:44:25;102702.50;;;17.45;53.39
69535;BME280;56754;51.568;5.048;2023-05-27T07:46:51;102698.72;;;17.46;53.09
69535;BME280;56754;51.568;5.048;2023-05-27T07:49:16;102687.28;;;17.49;53.03
69535;BME280;56754;51.568;5.048;2023-05-27T07:51:41;102693.97;;;17.51;53.46
69535;BME280;56754;51.568;5.048;2023-05-27T07:54:07;102676.63;;;17.52;53.35
69535;BME280;56754;51.568;5.048;2023-05-27T07:56:32;102681.44;;;17.56;52.91
69535;BME280;56754;51.568;5.048;2023-05-27T07:58:57;102686.53;;;17.57;53.03
69535;BME280;56754;51.568;5.048;2023-05-27T08:01:22;102676.97;;;17.60;53.10
69535;BME280;56754;51.568;5.048;2023-05-27T08:03:48;102677.47;;;17.62;53.16
69535;BME280;56754;51.568;5.048;2023-05-27T08:06:13;102669.84;;;17.64;53.02
69535;BME280;56754;51.568;5.048;2023-05-27T08:08:40;102669.53;;;17.65;53.05
69535;BME280;56754;51.568;5.048;2023-05-27T08:11:05;102675.44;;;17.67;52.64
69535;BME280;56754;51.568;5.048;2023-05-27T08:13:30;102663.50;;;17.68;52.81
69535;BME280;56754;51.568;5.048;2023-05-27T08:15:55;102658.56;;;17.70;52.36
69535;BME280;56754;51.568;5.048;2023-05-27T08:18:21;102659.38;;;17.71;52.40
69535;BME280;56754;51.568;5.048;2023-05-27T08:20:46;102657.16;;;17.73;52.26
69535;BME280;56754;51.568;5.048;2023-05-27T08:23:11;102654.13;;;17.74;52.74
69535;BME280;56754;51.568;5.048;2023-05-27T08:25:37;102653.81;;;17.76;52.52
69535;BME280;56754;51.568;5.048;2023-05-27T08:28:02;102647.28;;;17.77;52.42
69535;BME280;56754;51.568;5.048;2023-05-27T08:30:28;102635.41;;;17.78;52.28
69535;BME280;56754;51.568;5.048;2023-05-27T08:32:55;102642.09;;;17.81;52.47
69535;BME280;56754;51.568;5.048;2023-05-27T08:35:20;102636.38;;;17.82;52.49
69535;BME280;56754;51.568;5.048;2023-05-27T08:37:45;102639.56;;;17.84;52.52
69535;BME280;56754;51.568;5.048;2023-05-27T08:40:14;102640.34;;;17.85;52.63
69535;BME280;56754;51.568;5.048;2023-05-27T08:42:40;102633.81;;;17.86;52.52
69535;BME280;56754;51.568;5.048;2023-05-27T08:45:07;102628.59;;;17.89;52.70
69535;BME280;56754;51.568;5.048;2023-05-27T08:47:33;102625.88;;;17.89;52.76
69535;BME280;56754;51.568;5.048;2023-05-27T08:49:58;102627.97;;;17.92;52.96
69535;BME280;56754;51.568;5.048;2023-05-27T08:52:24;102623.03;;;17.94;52.79
69535;BME280;56754;51.568;5.048;2023-05-27T08:54:52;102617.63;;;17.94;52.76
69535;BME280;56754;51.568;5.048;2023-05-27T08:57:20;102609.19;;;17.96;52.69
69535;BME280;56754;51.568;5.048;2023-05-27T08:59:45;102615.91;;;17.99;52.41
69535;BME280;56754;51.568;5.048;2023-05-27T09:02:12;102604.75;;;18.00;52.56
69535;BME280;56754;51.568;5.048;2023-05-27T09:04:39;102609.84;;;18.02;52.70
69535;BME280;56754;51.568;5.048;2023-05-27T09:07:04;102610.31;;;18.04;52.63
69535;BME280;56754;51.568;5.048;2023-05-27T09:09:29;102601.88;;;18.05;52.46
69535;BME280;56754;51.568;5.048;2023-05-27T09:11:59;102598.84;;;18.07;52.71
69535;BME280;56754;51.568;5.048;2023-05-27T09:14:24;102591.22;;;18.09;52.45
69535;BME280;56754;51.568;5.048;2023-05-27T09:16:49;102602.53;;;18.11;52.74
69535;BME280;56754;51.568;5.048;2023-05-27T09:19:18;102587.09;;;18.11;52.90
69535;BME280;56754;51.568;5.048;2023-05-27T09:21:44;102593.78;;;18.14;53.13
69535;BME280;56754;51.568;5.048;2023-05-27T09:24:10;102596.50;;;18.14;52.94
69535;BME280;56754;51.568;5.048;2023-05-27T09:26:35;102588.03;;;18.15;52.81
69535;BME280;56754;51.568;5.048;2023-05-27T09:29:00;102589.31;;;18.18;53.17
69535;BME280;56754;51.568;5.048;2023-05-27T09:31:26;102581.19;;;18.18;53.53
69535;BME280;56754;51.568;5.048;2023-05-27T09:33:51;102587.09;;;18.20;53.47
69535;BME280;56754;51.568;5.048;2023-05-27T09:36:20;102574.06;;;18.22;53.26
69535;BME280;56754;51.568;5.048;2023-05-27T09:38:46;102570.22;;;18.23;52.90
69535;BME280;56754;51.568;5.048;2023-05-27T09:41:11;102570.22;;;18.23;52.73
69535;BME280;56754;51.568;5.048;2023-05-27T09:43:36;102562.59;;;18.25;52.62
69535;BME280;56754;51.568;5.048;2023-05-27T09:46:07;102567.66;;;18.27;52.98
69535;BME280;56754;51.568;5.048;2023-05-27T09:48:36;102565.75;;;18.27;53.38
69535;BME280;56754;51.568;5.048;2023-05-27T09:51:03;102565.44;;;18.29;52.96
69535;BME280;56754;51.568;5.048;2023-05-27T09:53:29;102561.94;;;18.28;52.67
69535;BME280;56754;51.568;5.048;2023-05-27T09:55:55;102557.00;;;18.30;53.10
69535;BME280;56754;51.568;5.048;2023-05-27T09:58:22;102556.69;;;18.32;52.44
69535;BME280;56754;51.568;5.048;2023-05-27T10:00:47;102555.56;;;18.33;52.55
69535;BME280;56754;51.568;5.048;2023-05-27T10:03:13;102564.16;;;18.35;52.32
69535;BME280;56754;51.568;5.048;2023-05-27T10:05:39;102558.41;;;18.36;52.41
69535;BME280;56754;51.568;5.048;2023-05-27T10:08:04;102563.84;;;18.36;52.20
69535;BME280;56754;51.568;5.048;2023-05-27T10:10:30;102553.00;;;18.36;52.45
69535;BME280;56754;51.568;5.048;2023-05-27T10:12:56;102546.50;;;18.37;52.71
69535;BME280;56754;51.568;5.048;2023-05-27T10:15:28;102548.06;;;18.38;52.26
69535;BME280;56754;51.568;5.048;2023-05-27T10:17:57;102539.66;;;18.40;52.21
69535;BME280;56754;51.568;5.048;2023-05-27T10:20:33;102533.91;;;18.41;51.84
69535;BME280;56754;51.568;5.048;2023-05-27T10:23:16;102530.06;;;18.42;52.15
69535;BME280;56754;51.568;5.048;2023-05-27T10:28:32;102527.84;;;18.45;51.36
69535;BME280;56754;51.568;5.048;2023-05-27T10:31:28;102524.00;;;18.46;51.58
69535;BME280;56754;51.568;5.048;2023-05-27T10:33:57;102533.75;;;18.47;51.65
69535;BME280;56754;51.568;5.048;2023-05-27T10:36:25;102531.81;;;18.47;52.17
69535;BME280;56754;51.568;5.048;2023-05-27T10:39:05;102521.78;;;18.48;51.73
69535;BME280;56754;51.568;5.048;2023-05-27T10:41:50;102521.47;;;18.49;51.59
69535;BME280;56754;51.568;5.048;2023-05-27T10:44:35;102518.44;;;18.51;51.62
69535;BME280;56754;51.568;5.048;2023-05-27T10:47:08;102512.22;;;18.50;51.89
69535;BME280;56754;51.568;5.048;2023-05-27T10:49:35;102517.31;;;18.52;51.75
69535;BME280;56754;51.568;5.048;2023-05-27T10:52:11;102501.88;;;18.52;51.74
69535;BME280;56754;51.568;5.048;2023-05-27T10:54:38;102497.25;;;18.53;51.97
69535;BME280;56754;51.568;5.048;2023-05-27T10:57:04;102490.69;;;18.54;51.24
69535;BME280;56754;51.568;5.048;2023-05-27T10:59:50;102490.41;;;18.55;52.57
69535;BME280;56754;51.568;5.048;2023-05-27T11:02:19;102485.78;;;18.56;51.72
69535;BME280;56754;51.568;5.048;2023-05-27T11:04:45;102484.63;;;18.57;52.06
69535;BME280;56754;51.568;5.048;2023-05-27T11:07:12;102475.41;;;18.58;51.70
69535;BME280;56754;51.568;5.048;2023-05-27T11:09:47;102469.66;;;18.59;52.81
69535;BME280;56754;51.568;5.048;2023-05-27T11:12:16;102469.34;;;18.61;53.75
69535;BME280;56754;51.568;5.048;2023-05-27T11:14:42;102472.84;;;18.61;54.04
69535;BME280;56754;51.568;5.048;2023-05-27T11:17:14;102475.22;;;18.63;52.48
69535;BME280;56754;51.568;5.048;2023-05-27T11:19:40;102466.00;;;18.64;53.66
69535;BME280;56754;51.568;5.048;2023-05-27T11:22:07;102454.81;;;18.65;54.00
69535;BME280;56754;51.568;5.048;2023-05-27T11:24:33;102457.53;;;18.65;53.88
69535;BME280;56754;51.568;5.048;2023-05-27T11:26:58;102454.53;;;18.67;53.94
69535;BME280;56754;51.568;5.048;2023-05-27T11:29:23;102456.09;;;18.68;53.86
69535;BME280;56754;51.568;5.048;2023-05-27T11:31:49;102449.53;;;18.69;53.78
69535;BME280;56754;51.568;5.048;2023-05-27T11:34:15;102455.44;;;18.71;53.90
69535;BME280;56754;51.568;5.048;2023-05-27T11:36:43;102433.78;;;18.71;53.62
69535;BME280;56754;51.568;5.048;2023-05-27T11:39:12;102431.84;;;18.72;53.61
69535;BME280;56754;51.568;5.048;2023-05-27T11:41:48;102435.88;;;18.74;53.82
69535;BME280;56754;51.568;5.048;2023-05-27T11:44:13;102439.06;;;18.76;54.20
69535;BME280;56754;51.568;5.048;2023-05-27T11:46:43;102428.22;;;18.76;54.08
69535;BME280;56754;51.568;5.048;2023-05-27T11:49:11;102413.53;;;18.77;53.68
69535;BME280;56754;51.568;5.048;2023-05-27T11:51:38;102424.84;;;18.79;53.98
69535;BME280;56754;51.568;5.048;2023-05-27T11:54:04;102415.59;;;18.80;53.93
69535;BME280;56754;51.568;5.048;2023-05-27T11:56:29;102410.19;;;18.80;54.03
69535;BME280;56754;51.568;5.048;2023-05-27T11:58:55;102407.16;;;18.82;54.09
69535;BME280;56754;51.568;5.048;2023-05-27T12:01:21;102404.09;;;18.83;54.07
69535;BME280;56754;51.568;5.048;2023-05-27T12:03:47;102409.22;;;18.85;54.01
69535;BME280;56754;51.568;5.048;2023-05-27T12:06:14;102395.66;;;18.85;54.16
69535;BME280;56754;51.568;5.048;2023-05-27T12:08:41;102388.31;;;18.85;54.22
69535;BME280;56754;51.568;5.048;2023-05-27T12:11:06;102386.88;;;18.88;54.08
69535;BME280;56754;51.568;5.048;2023-05-27T12:13:31;102384.97;;;18.89;54.11
69535;BME280;56754;51.568;5.048;2023-05-27T12:15:57;102376.53;;;18.90;54.19
69535;BME280;56754;51.568;5.048;2023-05-27T12:18:23;102387.03;;;18.92;54.31
69535;BME280;56754;51.568;5.048;2023-05-27T12:20:49;102379.69;;;18.92;54.30
69535;BME280;56754;51.568;5.048;2023-05-27T12:23:14;102373.16;;;18.93;54.15
69535;BME280;56754;51.568;5.048;2023-05-27T12:25:40;102364.38;;;18.96;54.05
69535;BME280;56754;51.568;5.048;2023-05-27T12:28:09;102379.63;;;19.01;54.26
69535;BME280;56754;51.568;5.048;2023-05-27T12:30:35;102370.97;;;19.07;54.02
69535;BME280;56754;51.568;5.048;2023-05-27T12:33:02;102368.06;;;19.13;53.75
69535;BME280;56754;51.568;5.048;2023-05-27T12:35:27;102364.50;;;19.21;53.79
69535;BME280;56754;51.568;5.048;2023-05-27T12:37:53;102352.66;;;19.25;53.58
69535;BME280;56754;51.568;5.048;2023-05-27T12:40:18;102352.16;;;19.32;53.53
69535;BME280;56754;51.568;5.048;2023-05-27T12:42:43;102355.78;;;19.36;53.34
69535;BME280;56754;51.568;5.048;2023-05-27T12:45:09;102359.88;;;19.42;53.08
69535;BME280;56754;51.568;5.048;2023-05-27T12:47:35;102356.50;;;19.45;52.91
69535;BME280;56754;51.568;5.048;2023-05-27T12:50:01;102357.09;;;19.51;52.88